sensor_id;sensor_type;location;lat;lon;timestamp;pressure;altitude;pressure_sealevel;temperature;humidity
85130;BME280;75492;49.310;20.046;2024-03-08T00:01:47;92115.44;;;-1.66;87.75
85130;BME280;75492;49.310;20.046;2024-03-08T00:06:48;92092.50;;;-1.86;86.93
85130;BME280;75492;49.310;20.046;2024-03-08T00:11:51;92113.81;;;-1.77;87.22
85130;BME280;75492;49.310;20.046;2024-03-08T00:16:52;92113.28;;;-1.84;88.01
85130;BME280;75492;49.310;20.046;2024-03-08T00:21:53;92108.81;;;-1.74;88.59
85130;BME280;75492;49.310;20.046;2024-03-08T00:26:56;92097.78;;;-1.76;87.54
85130;BME280;75492;49.310;20.046;2024-03-08T00:31:57;92112.53;;;-1.64;87.24
85130;BME280;75492;49.310;20.046;2024-03-08T00:36:59;92098.03;;;-1.62;86.91
85130;BME280;75492;49.310;20.046;2024-03-08T00:42:01;92090.13;;;-1.67;87.22
85130;BME280;75492;49.310;20.046;2024-03-08T00:47:03;92031.41;;;-2.19;87.74
85130;BME280;75492;49.310;20.046;2024-03-08T00:52:04;92087.25;;;-1.66;87.03
85130;BME280;75492;49.310;20.046;2024-03-08T00:57:07;92090.13;;;-1.77;87.22
85130;BME280;75492;49.310;20.046;2024-03-08T01:02:09;92079.88;;;-1.69;87.28
85130;BME280;75492;49.310;20.046;2024-03-08T01:07:11;92087.22;;;-2.06;88.06
85130;BME280;75492;49.310;20.046;2024-03-08T01:12:13;92080.38;;;-2.02;89.37
85130;BME280;75492;49.310;20.046;2024-03-08T01:17:15;92074.31;;;-1.98;87.49
85130;BME280;75492;49.310;20.046;2024-03-08T01:22:16;92066.16;;;-2.06;87.85
85130;BME280;75492;49.310;20.046;2024-03-08T01:27:19;92070.38;;;-1.90;89.18
85130;BME280;75492;49.310;20.046;2024-03-08T01:32:20;92050.63;;;-1.87;87.61
85130;BME280;75492;49.310;20.046;2024-03-08T01:37:21;92041.66;;;-1.97;87.29
85130;BME280;75492;49.310;20.046;2024-03-08T01:42:24;92068.00;;;-1.81;87.11
85130;BME280;75492;49.310;20.046;2024-03-08T01:47:25;92060.59;;;-2.10;88.17
85130;BME280;75492;49.310;20.046;2024-03-08T01:52:27;92060.38;;;-1.83;86.95
85130;BME280;75492;49.310;20.046;2024-03-08T01:57:31;92059.31;;;-1.92;87.17
85130;BME280;75492;49.310;20.046;2024-03-08T02:02:32;92065.38;;;-1.92;88.24
85130;BME280;75492;49.310;20.046;2024-03-08T02:07:34;92055.06;;;-2.14;88.04
85130;BME280;75492;49.310;20.046;2024-03-08T02:12:37;92060.09;;;-1.97;86.90
85130;BME280;75492;49.310;20.046;2024-03-08T02:17:38;92056.69;;;-1.92;86.57
85130;BME280;75492;49.310;20.046;2024-03-08T02:22:41;92058.25;;;-2.11;88.01
85130;BME280;75492;49.310;20.046;2024-03-08T02:27:43;92055.88;;;-1.77;86.32
85130;BME280;75492;49.310;20.046;2024-03-08T02:32:44;92041.94;;;-1.73;85.54
85130;BME280;75492;49.310;20.046;2024-03-08T02:37:47;92028.78;;;-1.83;84.79
85130;BME280;75492;49.310;20.046;2024-03-08T02:42:48;92045.63;;;-1.89;85.38
85130;BME280;75492;49.310;20.046;2024-03-08T02:47:50;92027.47;;;-1.91;85.65
85130;BME280;75492;49.310;20.046;2024-03-08T02:52:52;92019.84;;;-2.13;86.49
85130;BME280;75492;49.310;20.046;2024-03-08T02:57:54;92046.97;;;-1.86;85.97
85130;BME280;75492;49.310;20.046;2024-03-08T03:02:55;92056.94;;;-1.88;84.59
85130;BME280;75492;49.310;20.046;2024-03-08T03:07:57;92045.63;;;-1.89;84.46
85130;BME280;75492;49.310;20.046;2024-03-08T03:12:59;92016.69;;;-1.99;85.14
85130;BME280;75492;49.310;20.046;2024-03-08T03:18:00;92041.16;;;-1.88;85.23
85130;BME280;75492;49.310;20.046;2024-03-08T03:23:03;92042.47;;;-1.66;85.14
85130;BME280;75492;49.310;20.046;2024-03-08T03:28:05;92045.59;;;-1.63;85.18
85130;BME280;75492;49.310;20.046;2024-03-08T03:33:07;92036.16;;;-1.80;84.47
85130;BME280;75492;49.310;20.046;2024-03-08T03:38:09;92037.19;;;-1.81;83.71
85130;BME280;75492;49.310;20.046;2024-03-08T03:43:11;92004.31;;;-1.99;85.41
85130;BME280;75492;49.310;20.046;2024-03-08T03:48:12;92034.31;;;-1.69;85.47
85130;BME280;75492;49.310;20.046;2024-03-08T03:53:15;92038.50;;;-1.58;85.08
85130;BME280;75492;49.310;20.046;2024-03-08T03:58:16;92033.53;;;-1.95;84.54
85130;BME280;75492;49.310;20.046;2024-03-08T04:03:17;92027.19;;;-1.84;84.75
85130;BME280;75492;49.310;20.046;2024-03-08T04:08:20;92036.13;;;-1.90;84.16
85130;BME280;75492;49.310;20.046;2024-03-08T04:13:21;92032.97;;;-1.61;83.92
85130;BME280;75492;49.310;20.046;2024-03-08T04:18:23;92031.91;;;-1.71;84.83
85130;BME280;75492;49.310;20.046;2024-03-08T04:23:25;92030.38;;;-1.82;83.82
85130;BME280;75492;49.310;20.046;2024-03-08T04:28:26;92026.66;;;-1.60;84.72
85130;BME280;75492;49.310;20.046;2024-03-08T04:33:28;92008.25;;;-1.76;84.01
85130;BME280;75492;49.310;20.046;2024-03-08T04:38:30;92041.69;;;-1.76;85.52
85130;BME280;75492;49.310;20.046;2024-03-08T04:43:32;92049.56;;;-1.92;85.53
85130;BME280;75492;49.310;20.046;2024-03-08T04:48:33;92036.69;;;-1.73;85.82
85130;BME280;75492;49.310;20.046;2024-03-08T04:53:36;92039.28;;;-1.52;82.99
85130;BME280;75492;49.310;20.046;2024-03-08T04:58:37;92038.25;;;-1.72;85.27
85130;BME280;75492;49.310;20.046;2024-03-08T05:03:39;92035.38;;;-1.60;85.51
85130;BME280;75492;49.310;20.046;2024-03-08T05:08:41;92006.16;;;-2.09;85.99
85130;BME280;75492;49.310;20.046;2024-03-08T05:13:43;92025.34;;;-2.09;85.08
85130;BME280;75492;49.310;20.046;2024-03-08T05:18:44;92038.78;;;-1.75;85.89
85130;BME280;75492;49.310;20.046;2024-03-08T05:23:47;92032.44;;;-1.74;84.91
85130;BME280;75492;49.310;20.046;2024-03-08T05:28:48;92025.63;;;-1.85;85.43
85130;BME280;75492;49.310;20.046;2024-03-08T05:33:50;92039.06;;;-1.76;85.26
85130;BME280;75492;49.310;20.046;2024-03-08T05:38:52;92046.16;;;-1.56;84.15
85130;BME280;75492;49.310;20.046;2024-03-08T05:43:54;92048.53;;;-1.75;86.09
85130;BME280;75492;49.310;20.046;2024-03-08T05:48:55;92053.78;;;-1.65;85.00
85130;BME280;75492;49.310;20.046;2024-03-08T05:53:58;92059.59;;;-1.73;86.08
85130;BME280;75492;49.310;20.046;2024-03-08T05:58:59;92062.47;;;-1.85;85.32
85130;BME280;75492;49.310;20.046;2024-03-08T06:04:01;92068.28;;;-1.73;86.17
85130;BME280;75492;49.310;20.046;2024-03-08T06:09:04;92073.00;;;-1.90;84.95
85130;BME280;75492;49.310;20.046;2024-03-08T06:14:05;92045.63;;;-2.09;85.56
85130;BME280;75492;49.310;20.046;2024-03-08T06:19:06;92074.84;;;-1.80;86.60
85130;BME280;75492;49.310;20.046;2024-03-08T06:24:09;92067.47;;;-1.94;87.12
85130;BME280;75492;49.310;20.046;2024-03-08T06:29:10;92032.72;;;-2.01;85.23
85130;BME280;75492;49.310;20.046;2024-03-08T06:34:12;92067.25;;;-1.67;86.04
85130;BME280;75492;49.310;20.046;2024-03-08T06:39:14;92053.25;;;-1.57;86.43
85130;BME280;75492;49.310;20.046;2024-03-08T06:44:18;92054.03;;;-1.51;85.79
85130;BME280;75492;49.310;20.046;2024-03-08T06:49:19;92049.81;;;-1.57;85.74
85130;BME280;75492;49.310;20.046;2024-03-08T06:54:21;92051.88;;;-1.24;82.28
85130;BME280;75492;49.310;20.046;2024-03-08T06:59:23;92053.22;;;-1.31;84.32
85130;BME280;75492;49.310;20.046;2024-03-08T07:04:24;92053.97;;;-1.15;82.71
85130;BME280;75492;49.310;20.046;2024-03-08T07:09:27;92062.44;;;-1.19;84.42
85130;BME280;75492;49.310;20.046;2024-03-08T07:14:28;92057.19;;;-1.39;85.71
85130;BME280;75492;49.310;20.046;2024-03-08T07:19:29;92059.25;;;-1.21;84.57
85130;BME280;75492;49.310;20.046;2024-03-08T07:24:32;92063.22;;;-1.18;85.22
85130;BME280;75492;49.310;20.046;2024-03-08T07:29:34;92030.81;;;-1.34;84.97
85130;BME280;75492;49.310;20.046;2024-03-08T07:34:35;92058.63;;;-0.82;82.69
85130;BME280;75492;49.310;20.046;2024-03-08T07:39:38;92031.31;;;-1.22;84.63
85130;BME280;75492;49.310;20.046;2024-03-08T07:44:39;92058.19;;;-1.14;84.92
85130;BME280;75492;49.310;20.046;2024-03-08T07:49:40;92052.88;;;-1.04;84.99
85130;BME280;75492;49.310;20.046;2024-03-08T07:54:43;92057.09;;;-0.93;84.86
85130;BME280;75492;49.310;20.046;2024-03-08T07:59:46;92059.41;;;-0.76;83.48
85130;BME280;75492;49.310;20.046;2024-03-08T08:04:47;92030.19;;;-0.40;81.08
85130;BME280;75492;49.310;20.046;2024-03-08T08:09:50;92045.53;;;-0.48;83.70
85130;BME280;75492;49.310;20.046;2024-03-08T08:14:53;92045.66;;;-0.24;81.92
85130;BME280;75492;49.310;20.046;2024-03-08T08:19:55;92046.84;;;-0.40;82.27
85130;BME280;75492;49.310;20.046;2024-03-08T08:24:57;92053.16;;;-0.41;80.91
85130;BME280;75492;49.310;20.046;2024-03-08T08:29:59;92060.00;;;-0.35;82.01
85130;BME280;75492;49.310;20.046;2024-03-08T08:35:00;92055.78;;;0.09;79.12
85130;BME280;75492;49.310;20.046;2024-03-08T08:40:03;92056.63;;;0.04;79.51
85130;BME280;75492;49.310;20.046;2024-03-08T08:45:06;92053.13;;;0.14;79.57
85130;BME280;75492;49.310;20.046;2024-03-08T08:50:08;92030.63;;;0.16;80.05
85130;BME280;75492;49.310;20.046;2024-03-08T08:55:13;92049.63;;;0.23;79.77
85130;BME280;75492;49.310;20.046;2024-03-08T09:00:15;92044.28;;;0.29;79.41
85130;BME280;75492;49.310;20.046;2024-03-08T09:05:16;92044.94;;;0.44;79.76
85130;BME280;75492;49.310;20.046;2024-03-08T09:10:19;92033.31;;;0.75;79.08
85130;BME280;75492;49.310;20.046;2024-03-08T09:15:20;92014.00;;;0.45;79.13
85130;BME280;75492;49.310;20.046;2024-03-08T09:20:22;92030.88;;;0.78;78.19
85130;BME280;75492;49.310;20.046;2024-03-08T09:25:24;92031.91;;;0.53;80.19
85130;BME280;75492;49.310;20.046;2024-03-08T09:30:26;92011.84;;;0.52;77.20
85130;BME280;75492;49.310;20.046;2024-03-08T09:35:27;92030.69;;;0.69;79.39
85130;BME280;75492;49.310;20.046;2024-03-08T09:40:30;92018.22;;;0.99;77.31
85130;BME280;75492;49.310;20.046;2024-03-08T09:45:32;92030.75;;;1.17;78.24
85130;BME280;75492;49.310;20.046;2024-03-08T09:50:36;92037.69;;;1.13;79.82
85130;BME280;75492;49.310;20.046;2024-03-08T09:55:39;92039.53;;;1.56;79.59
85130;BME280;75492;49.310;20.046;2024-03-08T10:00:40;92032.50;;;1.70;77.74
85130;BME280;75492;49.310;20.046;2024-03-08T10:05:41;92036.81;;;1.42;79.47
85130;BME280;75492;49.310;20.046;2024-03-08T10:10:44;92035.94;;;1.71;78.67
85130;BME280;75492;49.310;20.046;2024-03-08T10:15:45;92029.13;;;1.64;77.51
85130;BME280;75492;49.310;20.046;2024-03-08T10:21:02;92030.06;;;2.11;74.80
85130;BME280;75492;49.310;20.046;2024-03-08T10:26:11;92040.22;;;1.85;76.90
85130;BME280;75492;49.310;20.046;2024-03-08T10:31:13;92043.44;;;1.82;77.44
85130;BME280;75492;49.310;20.046;2024-03-08T10:36:15;92025.16;;;1.62;80.26
85130;BME280;75492;49.310;20.046;2024-03-08T10:41:18;92030.75;;;1.79;79.20
85130;BME280;75492;49.310;20.046;2024-03-08T10:46:27;92035.00;;;1.99;76.27
85130;BME280;75492;49.310;20.046;2024-03-08T10:51:31;92028.34;;;1.64;77.75
85130;BME280;75492;49.310;20.046;2024-03-08T10:56:34;92029.34;;;1.68;77.85
85130;BME280;75492;49.310;20.046;2024-03-08T11:01:36;92027.56;;;2.01;79.89
85130;BME280;75492;49.310;20.046;2024-03-08T11:06:46;92028.00;;;2.41;77.09
85130;BME280;75492;49.310;20.046;2024-03-08T11:11:48;92015.75;;;2.45;79.47
85130;BME280;75492;49.310;20.046;2024-03-08T11:16:50;92017.47;;;2.36;76.64
85130;BME280;75492;49.310;20.046;2024-03-08T11:22:03;92009.56;;;2.50;77.59
85130;BME280;75492;49.310;20.046;2024-03-08T11:27:06;91992.22;;;2.06;77.55
85130;BME280;75492;49.310;20.046;2024-03-08T11:32:09;91971.97;;;1.96;79.71
85130;BME280;75492;49.310;20.046;2024-03-08T11:37:14;92005.22;;;2.07;80.68
85130;BME280;75492;49.310;20.046;2024-03-08T11:42:17;91997.56;;;1.87;82.54
85130;BME280;75492;49.310;20.046;2024-03-08T11:47:20;92002.41;;;1.80;81.79
85130;BME280;75492;49.310;20.046;2024-03-08T11:52:21;92005.66;;;1.77;81.29
85130;BME280;75492;49.310;20.046;2024-03-08T11:57:27;91965.00;;;1.68;78.36
85130;BME280;75492;49.310;20.046;2024-03-08T12:02:28;91986.09;;;1.92;81.37
85130;BME280;75492;49.310;20.046;2024-03-08T12:07:30;91986.81;;;1.97;79.61
85130;BME280;75492;49.310;20.046;2024-03-08T12:12:33;91986.31;;;1.95;80.15
85130;BME280;75492;49.310;20.046;2024-03-08T12:17:35;91980.94;;;2.00;81.56
85130;BME280;75492;49.310;20.046;2024-03-08T12:22:41;91979.66;;;1.79;81.80
85130;BME280;75492;49.310;20.046;2024-03-08T12:27:44;91982.56;;;1.96;81.46
85130;BME280;75492;49.310;20.046;2024-03-08T12:32:51;91983.25;;;1.88;82.62
85130;BME280;75492;49.310;20.046;2024-03-08T12:37:54;91964.69;;;1.88;83.44
85130;BME280;75492;49.310;20.046;2024-03-08T12:42:57;91961.75;;;1.89;84.01
85130;BME280;75492;49.310;20.046;2024-03-08T12:47:58;91951.50;;;1.83;83.13
85130;BME280;75492;49.310;20.046;2024-03-08T12:52:59;91965.47;;;1.88;83.93
85130;BME280;75492;49.310;20.046;2024-03-08T12:58:02;91961.75;;;1.89;85.18
85130;BME280;75492;49.310;20.046;2024-03-08T13:03:04;91957.25;;;1.90;85.06
85130;BME280;75492;49.310;20.046;2024-03-08T13:08:06;91954.38;;;1.86;84.73
85130;BME280;75492;49.310;20.046;2024-03-08T13:13:08;91948.22;;;1.91;85.88
85130;BME280;75492;49.310;20.046;2024-03-08T13:18:10;91950.19;;;2.18;84.97
85130;BME280;75492;49.310;20.046;2024-03-08T13:23:11;91947.91;;;2.11;82.76
85130;BME280;75492;49.310;20.046;2024-03-08T13:28:14;91951.38;;;2.26;84.36
85130;BME280;75492;49.310;20.046;2024-03-08T13:33:15;91943.72;;;2.24;84.11
85130;BME280;75492;49.310;20.046;2024-03-08T13:38:16;91926.25;;;2.23;82.47
85130;BME280;75492;49.310;20.046;2024-03-08T13:43:19;91937.94;;;2.36;83.80
85130;BME280;75492;49.310;20.046;2024-03-08T13:48:20;91927.72;;;2.29;83.56
85130;BME280;75492;49.310;20.046;2024-03-08T13:53:22;91936.72;;;2.47;81.77
85130;BME280;75492;49.310;20.046;2024-03-08T13:58:25;91906.09;;;2.22;83.35
85130;BME280;75492;49.310;20.046;2024-03-08T14:03:26;91930.31;;;2.48;82.89
85130;BME280;75492;49.310;20.046;2024-03-08T14:08:28;91926.47;;;2.41;82.57
85130;BME280;75492;49.310;20.046;2024-03-08T14:13:30;91939.94;;;2.44;82.45
85130;BME280;75492;49.310;20.046;2024-03-08T14:18:31;91898.66;;;2.24;81.60
85130;BME280;75492;49.310;20.046;2024-03-08T14:23:33;91909.75;;;2.26;82.03
85130;BME280;75492;49.310;20.046;2024-03-08T14:28:36;91897.69;;;2.34;81.50
85130;BME280;75492;49.310;20.046;2024-03-08T14:33:37;91923.84;;;2.54;82.73
85130;BME280;75492;49.310;20.046;2024-03-08T14:38:38;91902.25;;;2.47;83.32
85130;BME280;75492;49.310;20.046;2024-03-08T14:43:42;91896.22;;;2.42;81.85
85130;BME280;75492;49.310;20.046;2024-03-08T14:48:43;91909.91;;;2.63;82.13
85130;BME280;75492;49.310;20.046;2024-03-08T14:53:44;91913.03;;;2.51;82.34
85130;BME280;75492;49.310;20.046;2024-03-08T14:58:47;91904.97;;;2.56;82.98
85130;BME280;75492;49.310;20.046;2024-03-08T15:03:48;91904.13;;;2.74;82.63
85130;BME280;75492;49.310;20.046;2024-03-08T15:08:50;91893.91;;;2.54;83.50
85130;BME280;75492;49.310;20.046;2024-03-08T15:13:52;91909.72;;;2.73;84.25
85130;BME280;75492;49.310;20.046;2024-03-08T15:18:54;91906.84;;;2.69;83.41
85130;BME280;75492;49.310;20.046;2024-03-08T15:23:55;91903.41;;;2.82;81.93
85130;BME280;75492;49.310;20.046;2024-03-08T15:28:58;91901.66;;;2.78;83.19
85130;BME280;75492;49.310;20.046;2024-03-08T15:33:59;91901.28;;;2.71;83.11
85130;BME280;75492;49.310;20.046;2024-03-08T15:39:01;91905.50;;;2.72;85.26
85130;BME280;75492;49.310;20.046;2024-03-08T15:44:03;91915.91;;;2.82;83.86
85130;BME280;75492;49.310;20.046;2024-03-08T15:49:05;91912.28;;;2.78;84.52
85130;BME280;75492;49.310;20.046;2024-03-08T15:54:06;91903.72;;;2.53;86.21
85130;BME280;75492;49.310;20.046;2024-03-08T15:59:09;91905.56;;;2.53;86.81
85130;BME280;75492;49.310;20.046;2024-03-08T16:04:10;91902.63;;;2.54;86.86
85130;BME280;75492;49.310;20.046;2024-03-08T16:09:11;91908.03;;;2.49;87.06
85130;BME280;75492;49.310;20.046;2024-03-08T16:14:14;91896.78;;;2.25;87.98
85130;BME280;75492;49.310;20.046;2024-03-08T16:19:15;91911.16;;;2.38;87.99
85130;BME280;75492;49.310;20.046;2024-03-08T16:24:17;91905.25;;;2.27;87.98
85130;BME280;75492;49.310;20.046;2024-03-08T16:29:20;91889.69;;;2.06;88.39
85130;BME280;75492;49.310;20.046;2024-03-08T16:34:21;91907.41;;;2.25;88.28
85130;BME280;75492;49.310;20.046;2024-03-08T16:39:23;91898.44;;;2.07;88.54
85130;BME280;75492;49.310;20.046;2024-03-08T16:44:25;91908.84;;;2.03;88.46
85130;BME280;75492;49.310;20.046;2024-03-08T16:49:27;91902.44;;;2.04;88.75
85130;BME280;75492;49.310;20.046;2024-03-08T16:54:28;91910.19;;;2.01;88.11
85130;BME280;75492;49.310;20.046;2024-03-08T16:59:30;91897.31;;;1.94;87.87
85130;BME280;75492;49.310;20.046;2024-03-08T17:04:32;91899.97;;;1.94;88.53
85130;BME280;75492;49.310;20.046;2024-03-08T17:09:33;91906.56;;;1.97;88.01
85130;BME280;75492;49.310;20.046;2024-03-08T17:14:36;91914.38;;;1.88;90.07
85130;BME280;75492;49.310;20.046;2024-03-08T17:19:37;91908.59;;;2.00;87.71
85130;BME280;75492;49.310;20.046;2024-03-08T17:24:38;91902.81;;;1.98;88.61
85130;BME280;75492;49.310;20.046;2024-03-08T17:29:41;91901.63;;;1.90;88.85
85130;BME280;75492;49.310;20.046;2024-03-08T17:34:43;91901.56;;;1.76;88.60
85130;BME280;75492;49.310;20.046;2024-03-08T17:39:44;91897.56;;;1.79;87.93
85130;BME280;75492;49.310;20.046;2024-03-08T17:44:47;91901.72;;;1.66;88.08
85130;BME280;75492;49.310;20.046;2024-03-08T17:49:48;91900.31;;;1.36;88.28
85130;BME280;75492;49.310;20.046;2024-03-08T17:54:49;91905.38;;;1.32;88.97
85130;BME280;75492;49.310;20.046;2024-03-08T17:59:52;91902.72;;;1.32;88.62
85130;BME280;75492;49.310;20.046;2024-03-08T18:04:53;91894.66;;;1.42;88.55
85130;BME280;75492;49.310;20.046;2024-03-08T18:09:56;91887.72;;;1.28;89.25
85130;BME280;75492;49.310;20.046;2024-03-08T18:14:59;91900.88;;;1.52;89.17
85130;BME280;75492;49.310;20.046;2024-03-08T18:20:00;91903.72;;;1.55;89.35
85130;BME280;75492;49.310;20.046;2024-03-08T18:25:01;91902.31;;;1.44;89.85
85130;BME280;75492;49.310;20.046;2024-03-08T18:30:05;91900.31;;;1.36;89.11
85130;BME280;75492;49.310;20.046;2024-03-08T18:35:07;91897.53;;;1.27;89.27
85130;BME280;75492;49.310;20.046;2024-03-08T18:40:09;91901.94;;;1.32;89.44
85130;BME280;75492;49.310;20.046;2024-03-08T18:45:14;91895.84;;;1.12;90.35
85130;BME280;75492;49.310;20.046;2024-03-08T18:50:17;91872.06;;;0.93;91.14
85130;BME280;75492;49.310;20.046;2024-03-08T18:55:19;91894.00;;;1.13;90.06
85130;BME280;75492;49.310;20.046;2024-03-08T19:00:23;91898.38;;;1.23;89.93
85130;BME280;75492;49.310;20.046;2024-03-08T19:05:25;91895.66;;;1.09;91.79
85130;BME280;75492;49.310;20.046;2024-03-08T19:10:27;91892.69;;;0.91;92.23
85130;BME280;75492;49.310;20.046;2024-03-08T19:15:30;91892.53;;;0.83;92.00
85130;BME280;75492;49.310;20.046;2024-03-08T19:20:32;91877.91;;;0.66;92.13
85130;BME280;75492;49.310;20.046;2024-03-08T19:25:34;91887.25;;;0.59;91.48
85130;BME280;75492;49.310;20.046;2024-03-08T19:30:36;91887.38;;;0.49;93.05
85130;BME280;75492;49.310;20.046;2024-03-08T19:35:38;91877.88;;;0.72;91.30
85130;BME280;75492;49.310;20.046;2024-03-08T19:40:39;91857.13;;;0.60;91.42
85130;BME280;75492;49.310;20.046;2024-03-08T19:45:42;91891.88;;;0.72;91.69
85130;BME280;75492;49.310;20.046;2024-03-08T19:50:43;91886.31;;;0.74;91.00
85130;BME280;75492;49.310;20.046;2024-03-08T19:55:45;91881.88;;;0.45;93.36
85130;BME280;75492;49.310;20.046;2024-03-08T20:00:48;91892.34;;;0.55;92.64
85130;BME280;75492;49.310;20.046;2024-03-08T20:05:50;91886.66;;;0.67;92.34
85130;BME280;75492;49.310;20.046;2024-03-08T20:10:51;91874.50;;;0.42;92.99
85130;BME280;75492;49.310;20.046;2024-03-08T20:15:54;91883.88;;;0.53;92.19
85130;BME280;75492;49.310;20.046;2024-03-08T20:20:55;91888.00;;;0.40;91.91
85130;BME280;75492;49.310;20.046;2024-03-08T20:25:56;91891.22;;;0.37;91.40
85130;BME280;75492;49.310;20.046;2024-03-08T20:31:04;91877.75;;;0.10;92.09
85130;BME280;75492;49.310;20.046;2024-03-08T20:36:06;91879.50;;;0.19;91.86
